N93SJ EIDW-EICK
Flight info
| Callsign | N93SJ |
|---|---|
| Flight time | N/A |
| Altitude | 24000 |
| Route | OLONO2J OLONO DCT CML DCT TISMO TISMO1G |
| Aircraft | SF50/L-BDGRSWY/LB2U2 |
Departure
| Time | 2026-02-18 22:32 |
|---|---|
| Airport | Dublin Airport (EIDW) |
Arrival
| Time | N/A |
|---|---|
| Airport | Cork International Airport (EICK) |
| Time | Latitude | Longitude | Altitude | Speed | Heading |
|---|---|---|---|---|---|
| 2026-02-18 22:12 | 53.43287 | -6.25126 | 219 ft | 0 kts | 184° |
| 2026-02-18 22:24 | 53.43283 | -6.25126 | 219 ft | 0 kts | 184° |
| 2026-02-18 22:24 | 53.43265 | -6.25128 | 219 ft | 2 kts | 184° |
| 2026-02-18 22:24 | 53.43241 | -6.25118 | 219 ft | 7 kts | 120° |
| 2026-02-18 22:24 | 53.43236 | -6.25078 | 219 ft | 0 kts | 84° |
| 2026-02-18 22:25 | 53.43235 | -6.25007 | 219 ft | 5 kts | 95° |
| 2026-02-18 22:25 | 53.43231 | -6.24933 | 219 ft | 7 kts | 94° |
| 2026-02-18 22:25 | 53.43227 | -6.24835 | 219 ft | 9 kts | 94° |
| 2026-02-18 22:26 | 53.43220 | -6.24723 | 219 ft | 7 kts | 102° |
| 2026-02-18 22:26 | 53.43209 | -6.24692 | 219 ft | 3 kts | 147° |
| 2026-02-18 22:26 | 53.43195 | -6.24637 | 219 ft | 7 kts | 94° |
| 2026-02-18 22:26 | 53.43190 | -6.24554 | 219 ft | 8 kts | 96° |
| 2026-02-18 22:27 | 53.43188 | -6.24460 | 219 ft | 8 kts | 61° |
| 2026-02-18 22:27 | 53.43239 | -6.24412 | 219 ft | 9 kts | 4° |
| 2026-02-18 22:27 | 53.43303 | -6.24396 | 219 ft | 9 kts | 27° |
| 2026-02-18 22:27 | 53.43340 | -6.24315 | 219 ft | 8 kts | 89° |
| 2026-02-18 22:28 | 53.43336 | -6.24235 | 219 ft | 7 kts | 94° |
| 2026-02-18 22:28 | 53.43331 | -6.24159 | 219 ft | 6 kts | 97° |
| 2026-02-18 22:28 | 53.43327 | -6.24087 | 219 ft | 6 kts | 94° |
| 2026-02-18 22:28 | 53.43324 | -6.24019 | 219 ft | 6 kts | 94° |
| 2026-02-18 22:29 | 53.43331 | -6.23893 | 219 ft | 5 kts | 64° |
| 2026-02-18 22:29 | 53.43357 | -6.23865 | 218 ft | 5 kts | 8° |
| 2026-02-18 22:29 | 53.43380 | -6.23861 | 218 ft | 0 kts | 4° |
| 2026-02-18 22:30 | 53.43390 | -6.23860 | 218 ft | 4 kts | 4° |
| 2026-02-18 22:30 | 53.43445 | -6.23857 | 216 ft | 11 kts | 357° |
| 2026-02-18 22:31 | 53.43488 | -6.23897 | 216 ft | 5 kts | 291° |
| 2026-02-18 22:31 | 53.43491 | -6.23920 | 216 ft | 0 kts | 275° |
| 2026-02-18 22:31 | 53.43495 | -6.23983 | 217 ft | 28 kts | 275° |
| 2026-02-18 22:32 | 53.43533 | -6.24695 | 221 ft | 93 kts | 275° |
| 2026-02-18 22:32 | 53.43593 | -6.25999 | 455 ft | 118 kts | 272° |
| 2026-02-18 22:32 | 53.43644 | -6.27364 | 876 ft | 119 kts | 271° |
| 2026-02-18 22:32 | 53.43808 | -6.28933 | 985 ft | 154 kts | 293° |
| 2026-02-18 22:33 | 53.45188 | -6.31878 | 1739 ft | 165 kts | 308° |
| 2026-02-18 22:33 | 53.45880 | -6.33498 | 2137 ft | 183 kts | 303° |
| 2026-02-18 22:33 | 53.46620 | -6.35341 | 2745 ft | 191 kts | 302° |
| 2026-02-18 22:34 | 53.47403 | -6.37143 | 3459 ft | 190 kts | 303° |
| 2026-02-18 22:34 | 53.48168 | -6.38988 | 3991 ft | 203 kts | 303° |
| 2026-02-18 22:34 | 53.49053 | -6.41104 | 4010 ft | 240 kts | 304° |
| 2026-02-18 22:34 | 53.50089 | -6.43543 | 4011 ft | 269 kts | 304° |
| 2026-02-18 22:35 | 53.50987 | -6.46347 | 4292 ft | 270 kts | 282° |
| 2026-02-18 22:35 | 53.51020 | -6.49283 | 5425 ft | 238 kts | 255° |
| 2026-02-18 22:35 | 53.50426 | -6.51635 | 6604 ft | 203 kts | 231° |
| 2026-02-18 22:35 | 53.49545 | -6.53185 | 7643 ft | 172 kts | 213° |
| 2026-02-18 22:36 | 53.48512 | -6.54131 | 8204 ft | 171 kts | 197° |
| 2026-02-18 22:36 | 53.47346 | -6.54494 | 8752 ft | 170 kts | 181° |
| 2026-02-18 22:36 | 53.46133 | -6.54254 | 8971 ft | 188 kts | 165° |
| 2026-02-18 22:36 | 53.44814 | -6.53448 | 8982 ft | 215 kts | 161° |
| 2026-02-18 22:37 | 53.41725 | -6.51655 | 8982 ft | 250 kts | 161° |
| 2026-02-18 22:37 | 53.40063 | -6.50669 | 8975 ft | 257 kts | 161° |
| 2026-02-18 22:38 | 53.36630 | -6.48640 | 8971 ft | 264 kts | 162° |
| 2026-02-18 22:38 | 53.34917 | -6.47634 | 8967 ft | 263 kts | 162° |
| 2026-02-18 22:38 | 53.33160 | -6.46602 | 8972 ft | 264 kts | 162° |
| 2026-02-18 22:39 | 53.29775 | -6.44334 | 9075 ft | 262 kts | 156° |
| 2026-02-18 22:39 | 53.28208 | -6.43092 | 9947 ft | 237 kts | 158° |
| 2026-02-18 22:39 | 53.26795 | -6.42000 | 10974 ft | 210 kts | 158° |
| 2026-02-18 22:39 | 53.25548 | -6.41033 | 11877 ft | 190 kts | 161° |
| 2026-02-18 22:40 | 53.23083 | -6.39143 | 12691 ft | 198 kts | 161° |
| 2026-02-18 22:40 | 53.21819 | -6.38162 | 13128 ft | 201 kts | 161° |
| 2026-02-18 22:40 | 53.20542 | -6.37173 | 13542 ft | 203 kts | 160° |
| 2026-02-18 22:41 | 53.17959 | -6.35177 | 14372 ft | 206 kts | 161° |
| 2026-02-18 22:41 | 53.16655 | -6.34173 | 14819 ft | 207 kts | 161° |
| 2026-02-18 22:41 | 53.15344 | -6.33162 | 15263 ft | 208 kts | 161° |
| 2026-02-18 22:42 | 53.14028 | -6.32146 | 15694 ft | 210 kts | 162° |
| 2026-02-18 22:42 | 53.12687 | -6.31114 | 15974 ft | 219 kts | 161° |
| 2026-02-18 22:42 | 53.11230 | -6.30005 | 15992 ft | 241 kts | 161° |
| 2026-02-18 22:42 | 53.09666 | -6.28803 | 15988 ft | 259 kts | 160° |
| 2026-02-18 22:43 | 53.07965 | -6.27487 | 15990 ft | 272 kts | 160° |
| 2026-02-18 22:43 | 53.06219 | -6.26139 | 15990 ft | 282 kts | 160° |
| 2026-02-18 22:43 | 53.04420 | -6.24760 | 15989 ft | 288 kts | 160° |
| 2026-02-18 22:43 | 53.02599 | -6.23365 | 15998 ft | 293 kts | 160° |
| 2026-02-18 22:44 | 53.00705 | -6.22142 | 15978 ft | 291 kts | 170° |
| 2026-02-18 22:44 | 52.98718 | -6.21678 | 15977 ft | 288 kts | 182° |
| 2026-02-18 22:44 | 52.96736 | -6.21939 | 15982 ft | 284 kts | 195° |
| 2026-02-18 22:44 | 52.94969 | -6.23250 | 15975 ft | 278 kts | 220° |
| 2026-02-18 22:45 | 52.92756 | -6.28361 | 15979 ft | 274 kts | 242° |
| 2026-02-18 22:45 | 52.91769 | -6.31076 | 15973 ft | 276 kts | 239° |
| 2026-02-18 22:45 | 52.90714 | -6.33727 | 15979 ft | 277 kts | 238° |
| 2026-02-18 22:46 | 52.89656 | -6.36396 | 15977 ft | 277 kts | 239° |
| 2026-02-18 22:46 | 52.88618 | -6.39090 | 15974 ft | 278 kts | 239° |
| 2026-02-18 22:46 | 52.87577 | -6.41788 | 15977 ft | 278 kts | 239° |
| 2026-02-18 22:46 | 52.86527 | -6.44477 | 15976 ft | 278 kts | 239° |
| 2026-02-18 22:47 | 52.85476 | -6.47166 | 15971 ft | 279 kts | 239° |
| 2026-02-18 22:47 | 52.84418 | -6.49879 | 15970 ft | 280 kts | 239° |
| 2026-02-18 22:47 | 52.83362 | -6.52583 | 15968 ft | 280 kts | 239° |
| 2026-02-18 22:47 | 52.82307 | -6.55283 | 15969 ft | 280 kts | 239° |
| 2026-02-18 22:48 | 52.81259 | -6.57960 | 15965 ft | 280 kts | 239° |
| 2026-02-18 22:48 | 52.80187 | -6.60697 | 15968 ft | 280 kts | 239° |
| 2026-02-18 22:48 | 52.79126 | -6.63400 | 15964 ft | 281 kts | 239° |
| 2026-02-18 22:48 | 52.78077 | -6.66072 | 15962 ft | 281 kts | 239° |
| 2026-02-18 22:49 | 52.75942 | -6.71509 | 15959 ft | 280 kts | 239° |
| 2026-02-18 22:49 | 52.74892 | -6.74173 | 15962 ft | 280 kts | 239° |
| 2026-02-18 22:49 | 52.73827 | -6.76876 | 15963 ft | 280 kts | 239° |
| 2026-02-18 22:50 | 52.72763 | -6.79573 | 15964 ft | 280 kts | 239° |
| 2026-02-18 22:50 | 52.71702 | -6.82259 | 15959 ft | 280 kts | 239° |
| 2026-02-18 22:50 | 52.70642 | -6.84940 | 15961 ft | 279 kts | 239° |
| 2026-02-18 22:50 | 52.69576 | -6.87633 | 15959 ft | 279 kts | 239° |
| 2026-02-18 22:51 | 52.68513 | -6.90314 | 15960 ft | 279 kts | 239° |
| 2026-02-18 22:51 | 52.67453 | -6.92986 | 15958 ft | 279 kts | 239° |
| 2026-02-18 22:51 | 52.66392 | -6.95659 | 15959 ft | 279 kts | 239° |
| 2026-02-18 22:51 | 52.65328 | -6.98335 | 15958 ft | 279 kts | 239° |
| 2026-02-18 22:52 | 52.64266 | -7.01003 | 15957 ft | 278 kts | 239° |
| 2026-02-18 22:52 | 52.63203 | -7.03667 | 15954 ft | 278 kts | 239° |
| 2026-02-18 22:52 | 52.62141 | -7.06332 | 15958 ft | 278 kts | 239° |
| 2026-02-18 22:52 | 52.61079 | -7.08990 | 15956 ft | 278 kts | 239° |
| 2026-02-18 22:53 | 52.58965 | -7.14277 | 15955 ft | 278 kts | 239° |
| 2026-02-18 22:53 | 52.57906 | -7.16919 | 15951 ft | 278 kts | 239° |
| 2026-02-18 22:53 | 52.56842 | -7.19570 | 15950 ft | 277 kts | 239° |
| 2026-02-18 22:54 | 52.55779 | -7.22220 | 15952 ft | 277 kts | 239° |
| 2026-02-18 22:54 | 52.54719 | -7.24862 | 15953 ft | 277 kts | 239° |
| 2026-02-18 22:54 | 52.53658 | -7.27499 | 15951 ft | 277 kts | 239° |
| 2026-02-18 22:54 | 52.52598 | -7.30133 | 15952 ft | 277 kts | 238° |
| 2026-02-18 22:55 | 52.51535 | -7.32773 | 15953 ft | 276 kts | 238° |
| 2026-02-18 22:55 | 52.50475 | -7.35402 | 15949 ft | 276 kts | 238° |
| 2026-02-18 22:55 | 52.49415 | -7.38026 | 15949 ft | 276 kts | 238° |
| 2026-02-18 22:55 | 52.48355 | -7.40648 | 15947 ft | 276 kts | 238° |
| 2026-02-18 22:56 | 52.47293 | -7.43274 | 15952 ft | 275 kts | 238° |
| 2026-02-18 22:56 | 52.46235 | -7.45888 | 15953 ft | 275 kts | 238° |
| 2026-02-18 22:56 | 52.45129 | -7.48412 | 15945 ft | 276 kts | 232° |
| 2026-02-18 22:56 | 52.43788 | -7.50660 | 15944 ft | 276 kts | 228° |
| 2026-02-18 22:57 | 52.41128 | -7.55176 | 15942 ft | 275 kts | 229° |
| 2026-02-18 22:57 | 52.39790 | -7.57428 | 15946 ft | 276 kts | 229° |
| 2026-02-18 22:57 | 52.38447 | -7.59679 | 15941 ft | 276 kts | 229° |
| 2026-02-18 22:58 | 52.37105 | -7.61932 | 15886 ft | 277 kts | 229° |
| 2026-02-18 22:58 | 52.35758 | -7.64195 | 15706 ft | 278 kts | 229° |
| 2026-02-18 22:58 | 52.34401 | -7.66471 | 15523 ft | 280 kts | 229° |
| 2026-02-18 22:58 | 52.33044 | -7.68744 | 15342 ft | 280 kts | 229° |
| 2026-02-18 22:59 | 52.31699 | -7.70995 | 15158 ft | 279 kts | 229° |
| 2026-02-18 22:59 | 52.30327 | -7.73291 | 15061 ft | 278 kts | 229° |
| 2026-02-18 22:59 | 52.28992 | -7.75520 | 14948 ft | 279 kts | 228° |
| 2026-02-18 22:59 | 52.27669 | -7.77723 | 14793 ft | 266 kts | 229° |
| 2026-02-18 23:00 | 52.26410 | -7.79822 | 14622 ft | 251 kts | 229° |
| 2026-02-18 23:00 | 52.25212 | -7.81823 | 14415 ft | 243 kts | 229° |
| 2026-02-18 23:00 | 52.24040 | -7.83777 | 14118 ft | 240 kts | 229° |
| 2026-02-18 23:00 | 52.22871 | -7.85722 | 13776 ft | 239 kts | 228° |
| 2026-02-18 23:01 | 52.20937 | -7.88939 | 13182 ft | 239 kts | 228° |
| 2026-02-18 23:01 | 52.19766 | -7.90885 | 12815 ft | 242 kts | 228° |
| 2026-02-18 23:01 | 52.18576 | -7.92858 | 12498 ft | 245 kts | 228° |
| 2026-02-18 23:02 | 52.17375 | -7.94847 | 12184 ft | 246 kts | 228° |
| 2026-02-18 23:02 | 52.16169 | -7.96846 | 11866 ft | 249 kts | 228° |
| 2026-02-18 23:02 | 52.14950 | -7.98859 | 11555 ft | 247 kts | 227° |
| 2026-02-18 23:02 | 52.13619 | -8.00561 | 11192 ft | 240 kts | 216° |
| 2026-02-18 23:03 | 52.12137 | -8.01779 | 10837 ft | 239 kts | 205° |
| 2026-02-18 23:03 | 52.10545 | -8.02537 | 10478 ft | 239 kts | 199° |
| 2026-02-18 23:03 | 52.08934 | -8.03186 | 10126 ft | 237 kts | 199° |
| 2026-02-18 23:03 | 52.07344 | -8.03868 | 9780 ft | 235 kts | 199° |
| 2026-02-18 23:04 | 52.05764 | -8.04540 | 9442 ft | 235 kts | 199° |
| 2026-02-18 23:04 | 52.04176 | -8.05222 | 9076 ft | 234 kts | 199° |
| 2026-02-18 23:04 | 52.02606 | -8.05876 | 8705 ft | 231 kts | 198° |
| 2026-02-18 23:04 | 52.01041 | -8.06521 | 8377 ft | 239 kts | 198° |
| 2026-02-18 23:05 | 51.99843 | -8.07018 | 8193 ft | 244 kts | 198° |
| 2026-02-18 23:05 | 51.98173 | -8.07710 | 7902 ft | 250 kts | 198° |
| 2026-02-18 23:05 | 51.96459 | -8.08418 | 7550 ft | 257 kts | 197° |
| 2026-02-18 23:06 | 51.94714 | -8.09136 | 7167 ft | 258 kts | 197° |
| 2026-02-18 23:06 | 51.92977 | -8.09855 | 6790 ft | 257 kts | 196° |
| 2026-02-18 23:06 | 51.91246 | -8.10567 | 6414 ft | 256 kts | 196° |
| 2026-02-18 23:06 | 51.89526 | -8.11276 | 6039 ft | 254 kts | 196° |
| 2026-02-18 23:07 | 51.87820 | -8.11979 | 5668 ft | 252 kts | 195° |
| 2026-02-18 23:07 | 51.86135 | -8.12674 | 5425 ft | 247 kts | 194° |
| 2026-02-18 23:07 | 51.84480 | -8.13354 | 5420 ft | 245 kts | 194° |
| 2026-02-18 23:07 | 51.82819 | -8.14035 | 5421 ft | 246 kts | 194° |
| 2026-02-18 23:08 | 51.81177 | -8.14710 | 5429 ft | 246 kts | 194° |
| 2026-02-18 23:08 | 51.79515 | -8.15392 | 5429 ft | 245 kts | 195° |
| 2026-02-18 23:08 | 51.77862 | -8.16070 | 5426 ft | 245 kts | 195° |
| 2026-02-18 23:08 | 51.76208 | -8.16749 | 5424 ft | 246 kts | 195° |
| 2026-02-18 23:09 | 51.72872 | -8.18114 | 5428 ft | 247 kts | 195° |
| 2026-02-18 23:09 | 51.71234 | -8.18924 | 5425 ft | 242 kts | 203° |
| 2026-02-18 23:09 | 51.69808 | -8.20238 | 5411 ft | 232 kts | 214° |
| 2026-02-18 23:10 | 51.68610 | -8.21942 | 5213 ft | 236 kts | 226° |
| 2026-02-18 23:10 | 51.67610 | -8.24141 | 4898 ft | 239 kts | 237° |
| 2026-02-18 23:10 | 51.66947 | -8.26549 | 4585 ft | 232 kts | 246° |
| 2026-02-18 23:10 | 51.66438 | -8.28938 | 4288 ft | 226 kts | 248° |
| 2026-02-18 23:11 | 51.66164 | -8.31448 | 3989 ft | 231 kts | 264° |
| 2026-02-18 23:11 | 51.66341 | -8.34057 | 3756 ft | 238 kts | 278° |
| 2026-02-18 23:11 | 51.66959 | -8.36559 | 3749 ft | 244 kts | 295° |
| 2026-02-18 23:11 | 51.68012 | -8.38751 | 3571 ft | 251 kts | 314° |
| 2026-02-18 23:12 | 51.69446 | -8.40401 | 3266 ft | 254 kts | 333° |
| 2026-02-18 23:12 | 51.71082 | -8.41418 | 3004 ft | 247 kts | 342° |
| 2026-02-18 23:12 | 51.72655 | -8.42321 | 2996 ft | 236 kts | 341° |
| 2026-02-18 23:12 | 51.74174 | -8.43236 | 2993 ft | 231 kts | 341° |
| 2026-02-18 23:13 | 51.77142 | -8.44986 | 3001 ft | 205 kts | 342° |
| 2026-02-18 23:13 | 51.78395 | -8.45732 | 2907 ft | 184 kts | 342° |
| 2026-02-18 23:13 | 51.79578 | -8.46470 | 2588 ft | 183 kts | 341° |
| 2026-02-18 23:14 | 51.80795 | -8.47238 | 1997 ft | 191 kts | 343° |
| 2026-02-18 23:14 | 51.82022 | -8.47933 | 1167 ft | 184 kts | 345° |
| 2026-02-18 23:14 | 51.83174 | -8.48548 | 641 ft | 161 kts | 342° |
| 2026-02-18 23:14 | 51.84038 | -8.49060 | 502 ft | 103 kts | 341° |
| 2026-02-18 23:15 | 51.84588 | -8.49377 | 493 ft | 70 kts | 338° |